Time;durP1;ratioP1;P1;durP2;ratioP2;P2;SDS_P1;SDS_P2;PMS_P1;PMS_P2;Temp;Humidity;BMP_temperature;BMP_pressure;BME280_temperature;BME280_humidity;BME280_pressure;Samples;Min_cycle;Max_cycle;Signal;HPM_P1;HPM_P2
2022/04/28 00:01:07;;;;;;;4.38;1.50;;;8.00;99.90;;;;;;4919290;29;20058;-74
2022/04/28 00:03:32;;;;;;;3.72;1.48;;;8.00;99.90;;;;;;4919066;29;20139;-74
2022/04/28 00:05:58;;;;;;;2.92;0.98;;;7.90;99.90;;;;;;4903357;29;20122;-74
2022/04/28 00:08:25;;;;;;;2.13;1.10;;;7.90;99.90;;;;;;4919069;29;20126;-74
2022/04/28 00:10:50;;;;;;;2.83;1.02;;;8.00;99.90;;;;;;4918696;29;20063;-74
2022/04/28 00:13:17;;;;;;;2.90;1.10;;;7.90;99.90;;;;;;4919235;29;20048;-74
2022/04/28 00:15:44;;;;;;;5.40;1.85;;;7.90;99.90;;;;;;4903411;29;20372;-73
2022/04/28 00:18:10;;;;;;;3.08;1.10;;;7.90;99.90;;;;;;4919328;29;20396;-74
2022/04/28 00:20:36;;;;;;;1.80;1.05;;;7.90;99.90;;;;;;4918580;29;20036;-74
2022/04/28 00:23:02;;;;;;;3.78;1.73;;;7.90;99.90;;;;;;4918438;29;20091;-74
2022/04/28 00:25:27;;;;;;;3.90;1.33;;;7.90;99.90;;;;;;4918456;29;20086;-73
2022/04/28 00:27:54;;;;;;;3.90;1.33;;;7.90;99.90;;;;;;4919056;29;20466;-73
2022/04/28 00:30:20;;;;;;;5.50;1.50;;;7.90;99.90;;;;;;4918559;29;20087;-74
2022/04/28 00:32:46;;;;;;;;;;;7.90;99.90;;;;;;4903430;29;20079;-74
2022/04/28 00:35:12;;;;;;;3.38;1.48;;;7.90;99.90;;;;;;4934482;29;19968;-74
2022/04/28 00:37:38;;;;;;;4.97;2.03;;;7.90;99.90;;;;;;4918492;29;20047;-74
2022/04/28 00:40:05;;;;;;;2.85;1.20;;;7.90;99.90;;;;;;4918867;29;20051;-74
2022/04/28 00:42:31;;;;;;;2.08;0.90;;;7.90;99.90;;;;;;4918752;29;20052;-74
2022/04/28 00:44:57;;;;;;;1.63;0.80;;;7.90;99.90;;;;;;4902982;29;20567;-74
2022/04/28 00:47:22;;;;;;;3.13;1.17;;;7.90;99.90;;;;;;4902746;29;20054;-74
2022/04/28 00:52:34;;;;;;;1.60;0.80;;;7.90;99.90;;;;;;4918513;29;20062;-74
2022/04/28 00:55:00;;;;;;;3.03;0.90;;;7.90;99.90;;;;;;4918276;29;20135;-74
2022/04/28 00:57:26;;;;;;;4.07;1.17;;;7.90;99.90;;;;;;4902347;29;20051;-74
2022/04/28 00:59:52;;;;;;;5.60;1.50;;;7.90;99.90;;;;;;4887028;29;20055;-74
2022/04/28 01:02:19;;;;;;;4.15;1.33;;;7.90;99.90;;;;;;4918112;29;20070;-73
2022/04/28 01:04:46;;;;;;;2.60;1.15;;;7.90;99.90;;;;;;4917034;29;20131;-74
2022/04/28 01:07:12;;;;;;;3.67;1.17;;;7.90;99.90;;;;;;4917779;29;20048;-74
2022/04/28 01:09:40;;;;;;;6.47;1.35;;;7.90;99.90;;;;;;4902492;29;20062;-74
2022/04/28 01:12:15;;;;;;;2.28;1.10;;;7.90;99.90;;;;;;4917937;29;20070;-74
2022/04/28 01:14:42;;;;;;;1.83;0.75;;;7.90;99.90;;;;;;4902107;29;20511;-73
2022/04/28 01:17:08;;;;;;;3.88;1.20;;;7.90;99.90;;;;;;4901831;29;20048;-73
2022/04/28 01:19:33;;;;;;;1.98;0.82;;;7.90;99.90;;;;;;4917796;29;20063;-73
2022/04/28 01:21:59;;;;;;;3.45;1.20;;;7.90;99.90;;;;;;4917319;29;20511;-74
2022/04/28 01:24:25;;;;;;;4.93;1.73;;;7.80;99.90;;;;;;4917362;29;20205;-74
2022/04/28 01:26:54;;;;;;;5.55;1.45;;;7.80;99.90;;;;;;4917064;29;20070;-74
2022/04/28 01:29:20;;;;;;;3.25;1.80;;;7.80;99.90;;;;;;4917571;29;20113;-74
2022/04/28 01:31:45;;;;;;;2.42;1.40;;;7.90;99.90;;;;;;4917211;29;20047;-74
2022/04/28 01:34:11;;;;;;;3.72;1.75;;;7.80;99.90;;;;;;4901938;29;20059;-74
2022/04/28 01:36:37;;;;;;;3.97;1.40;;;7.80;99.90;;;;;;4917369;29;20447;-74
2022/04/28 01:39:06;;;;;;;2.75;1.23;;;7.80;99.90;;;;;;4917474;29;20051;-74
2022/04/28 01:41:32;;;;;;;2.90;1.00;;;7.80;99.90;;;;;;4917523;29;20047;-74
2022/04/28 01:43:58;;;;;;;2.80;1.10;;;7.80;99.90;;;;;;4917174;29;20047;-74
2022/04/28 01:46:23;;;;;;;2.13;1.10;;;7.80;99.90;;;;;;4901532;29;20360;-74
2022/04/28 01:48:49;;;;;;;1.80;0.98;;;7.80;99.90;;;;;;4917235;29;20147;-74
2022/04/28 01:56:43;;;;;;;1.90;0.90;;;7.80;99.90;;;;;;4916902;29;20419;-74
2022/04/28 01:59:09;;;;;;;1.80;0.80;;;7.80;99.90;;;;;;4901347;29;20052;-74
2022/04/28 02:01:35;;;;;;;1.80;0.70;;;7.80;99.90;;;;;;4915912;29;20063;-74
2022/04/28 02:04:00;;;;;;;2.72;0.98;;;7.80;99.90;;;;;;4885771;29;20491;-75
2022/04/28 02:06:26;;;;;;;1.25;0.57;;;7.80;99.90;;;;;;4900077;29;20074;-74
2022/04/28 02:08:52;;;;;;;2.28;0.75;;;7.90;99.90;;;;;;4885069;29;20179;-73
2022/04/28 02:11:17;;;;;;;1.88;0.63;;;7.80;99.90;;;;;;4901248;29;20047;-74
2022/04/28 02:13:43;;;;;;;1.95;0.75;;;7.90;99.90;;;;;;4901184;29;20198;-74
2022/04/28 02:16:10;;;;;;;3.38;1.38;;;7.80;99.90;;;;;;4916588;29;20047;-74
2022/04/28 02:18:36;;;;;;;2.38;1.10;;;7.80;99.90;;;;;;4917034;29;20060;-74
2022/04/28 02:21:02;;;;;;;1.92;0.90;;;7.80;99.90;;;;;;4916198;29;20062;-74
2022/04/28 02:23:28;;;;;;;1.27;0.60;;;7.80;99.90;;;;;;4885392;29;20039;-74
2022/04/28 02:25:53;;;;;;;1.77;0.80;;;7.80;99.90;;;;;;4916893;29;20035;-74
2022/04/28 02:28:19;;;;;;;4.25;1.23;;;7.80;99.90;;;;;;4916884;29;20047;-74
2022/04/28 02:30:48;;;;;;;3.13;1.20;;;7.80;99.90;;;;;;4916661;29;20043;-74
2022/04/28 02:33:13;;;;;;;4.97;1.05;;;7.80;99.90;;;;;;4916709;29;20131;-74
2022/04/28 02:35:39;;;;;;;4.75;1.25;;;7.80;99.90;;;;;;4916595;29;20130;-74
2022/04/28 02:38:06;;;;;;;2.30;0.70;;;7.80;99.90;;;;;;4901139;29;20122;-74
2022/04/28 02:40:33;;;;;;;1.00;0.65;;;7.70;99.90;;;;;;4900844;29;20057;-74
2022/04/28 02:42:59;;;;;;;;;;;7.70;99.90;;;;;;4901519;29;20519;-74
2022/04/28 02:45:25;;;;;;;1.20;0.70;;;7.80;99.90;;;;;;4916496;29;20374;-74
2022/04/28 02:47:51;;;;;;;;;;;7.80;99.90;;;;;;4917320;29;20114;-74
2022/04/28 02:50:17;;;;;;;2.15;0.80;;;7.70;99.90;;;;;;4900906;29;19919;-74
2022/04/28 02:52:43;;;;;;;2.58;0.80;;;7.70;99.90;;;;;;4916877;29;20387;-74
2022/04/28 02:55:09;;;;;;;3.28;1.13;;;7.70;99.90;;;;;;4933739;29;20052;-74
2022/04/28 02:57:36;;;;;;;4.25;1.35;;;7.70;99.90;;;;;;4916529;29;20177;-74
2022/04/28 03:00:04;;;;;;;4.28;1.60;;;7.70;99.90;;;;;;4916354;29;20066;-74
2022/04/28 03:02:30;;;;;;;3.58;1.42;;;7.70;99.90;;;;;;4916531;29;20075;-74
2022/04/28 03:04:57;;;;;;;3.15;1.10;;;7.70;99.90;;;;;;4900808;29;20048;-74
2022/04/28 03:13:11;;;;;;;2.83;0.80;;;7.70;99.90;;;;;;4859147;29;20437;-74
2022/04/28 03:15:39;;;;;;;1.70;0.73;;;7.80;99.90;;;;;;4859040;29;20060;-74
2022/04/28 03:18:05;;;;;;;0.93;0.60;;;7.70;99.90;;;;;;4886569;29;20063;-74
2022/04/28 03:20:30;;;;;;;2.45;1.02;;;7.70;99.90;;;;;;4916039;29;20439;-74
2022/04/28 03:22:56;;;;;;;2.80;1.00;;;7.80;99.90;;;;;;4916057;29;20099;-74
2022/04/28 03:25:22;;;;;;;1.95;0.98;;;7.70;99.90;;;;;;4916102;29;20066;-74
2022/04/28 03:27:48;;;;;;;2.03;0.90;;;7.70;99.90;;;;;;4902058;29;20783;-74
2022/04/28 03:30:13;;;;;;;2.42;0.70;;;7.70;99.90;;;;;;4903891;29;20503;-73
2022/04/28 03:32:39;;;;;;;2.67;1.00;;;7.70;99.90;;;;;;4919846;29;20047;-72
2022/04/28 03:35:05;;;;;;;2.10;0.82;;;7.80;99.90;;;;;;4919656;29;20103;-73
2022/04/28 03:37:31;;;;;;;1.88;0.90;;;7.80;99.90;;;;;;4919567;29;20059;-73
2022/04/28 03:39:57;;;;;;;1.48;0.70;;;7.80;99.90;;;;;;4903705;29;20063;-73
2022/04/28 03:42:22;;;;;;;1.35;0.80;;;7.80;99.90;;;;;;4904025;29;20094;-73
2022/04/28 03:44:48;;;;;;;1.33;0.88;;;7.80;99.90;;;;;;4903613;29;20491;-73
2022/04/28 03:47:14;;;;;;;0.73;0.57;;;7.80;99.90;;;;;;4919248;29;20083;-73
2022/04/28 03:49:42;;;;;;;0.85;0.65;;;7.80;99.90;;;;;;4919431;29;20098;-73
2022/04/28 03:52:08;;;;;;;0.90;0.50;;;7.80;99.90;;;;;;4919297;29;20048;-73
2022/04/28 03:54:34;;;;;;;0.70;0.50;;;7.80;99.90;;;;;;4919076;29;20056;-72
2022/04/28 03:56:59;;;;;;;0.73;0.40;;;7.80;99.90;;;;;;4919394;29;20047;-73
2022/04/28 03:59:25;;;;;;;0.60;0.47;;;7.80;99.90;;;;;;4918756;29;20126;-73
2022/04/28 04:01:52;;;;;;;1.23;0.63;;;7.70;99.90;;;;;;4917351;29;20478;-74
2022/04/28 04:04:17;;;;;;;2.97;1.30;;;7.70;99.90;;;;;;4935896;29;20135;-73
2022/04/28 04:06:43;;;;;;;2.28;1.13;;;7.70;99.90;;;;;;4917630;29;20127;-73
2022/04/28 04:09:09;;;;;;;2.53;1.10;;;7.70;99.90;;;;;;4903022;29;20040;-73
2022/04/28 04:11:34;;;;;;;2.15;0.80;;;7.70;99.90;;;;;;4918833;29;20047;-73
2022/04/28 04:14:00;;;;;;;1.50;0.65;;;7.70;99.90;;;;;;4918789;29;20047;-73
2022/04/28 04:16:26;;;;;;;1.65;1.00;;;7.70;99.90;;;;;;4918966;29;20092;-73
2022/04/28 04:18:51;;;;;;;1.48;0.70;;;7.70;99.90;;;;;;4903020;29;20507;-73
2022/04/28 04:21:19;;;;;;;2.00;1.05;;;7.70;99.90;;;;;;4902850;29;20067;-74
2022/04/28 04:23:44;;;;;;;1.58;1.10;;;7.70;99.90;;;;;;4918848;29;20407;-77
2022/04/28 04:26:10;;;;;;;1.98;1.13;;;7.70;99.90;;;;;;4903319;29;20048;-78
2022/04/28 04:28:36;;;;;;;3.17;1.10;;;7.80;99.90;;;;;;4903016;29;20048;-78
2022/04/28 04:33:46;;;;;;;3.47;1.15;;;7.80;99.90;;;;;;4932466;29;20043;-78
2022/04/28 04:36:11;;;;;;;4.18;1.63;;;7.90;99.90;;;;;;4936028;29;20098;-78
2022/04/28 04:38:37;;;;;;;4.25;1.70;;;7.90;99.90;;;;;;4918337;29;20486;-77
2022/04/28 04:41:03;;;;;;;2.88;1.40;;;8.00;99.90;;;;;;4903035;29;20044;-78
2022/04/28 04:43:28;;;;;;;5.57;2.03;;;8.00;99.90;;;;;;4903444;29;20044;-78
2022/04/28 04:45:54;;;;;;;6.22;1.90;;;8.00;99.90;;;;;;4903611;29;20051;-77
2022/04/28 04:48:21;;;;;;;3.55;1.63;;;8.10;99.90;;;;;;4918709;29;20431;-77
2022/04/28 04:50:47;;;;;;;2.35;1.13;;;8.00;99.90;;;;;;4903324;29;20487;-78
2022/04/28 04:53:13;;;;;;;4.20;1.40;;;8.10;99.90;;;;;;4890099;29;20368;-75
2022/04/28 04:55:39;;;;;;;4.82;1.98;;;8.00;99.90;;;;;;4912317;29;20536;-75
2022/04/28 04:58:06;;;;;;;5.15;2.00;;;8.00;99.90;;;;;;4912596;29;20201;-74
2022/04/28 05:00:31;;;;;;;7.90;2.20;;;8.00;99.90;;;;;;4909857;29;20519;-79
2022/04/28 05:02:57;;;;;;;7.22;2.17;;;7.90;99.90;;;;;;4918139;29;20053;-76
2022/04/28 05:05:23;;;;;;;4.15;1.73;;;7.90;99.90;;;;;;4917473;29;20060;-74
2022/04/28 05:07:49;;;;;;;6.05;1.90;;;7.90;99.90;;;;;;4916302;29;20047;-75
2022/04/28 05:10:14;;;;;;;4.32;1.40;;;7.80;99.90;;;;;;4917195;29;20146;-75
2022/04/28 05:12:40;;;;;;;7.30;1.80;;;7.80;99.90;;;;;;4916593;29;20074;-75
2022/04/28 05:15:06;;;;;;;7.50;2.00;;;7.80;99.90;;;;;;4917471;29;20530;-75
2022/04/28 05:17:32;;;;;;;4.18;1.70;;;7.80;99.90;;;;;;4900907;29;20048;-75
2022/04/28 05:19:58;;;;;;;6.80;2.15;;;7.80;99.90;;;;;;4901729;29;20448;-74
2022/04/28 05:22:27;;;;;;;2.08;1.08;;;7.80;99.90;;;;;;4917369;29;20063;-75
2022/04/28 05:24:52;;;;;;;7.30;1.23;;;7.80;99.90;;;;;;4917358;29;20074;-74
2022/04/28 05:27:18;;;;;;;2.50;1.00;;;7.80;99.90;;;;;;4901307;29;20491;-74
2022/04/28 05:29:44;;;;;;;4.30;1.55;;;7.80;99.90;;;;;;4901798;29;20086;-74
2022/04/28 05:32:10;;;;;;;5.22;1.45;;;7.80;99.90;;;;;;4901528;29;20479;-75
2022/04/28 05:34:35;;;;;;;5.38;1.10;;;7.80;99.90;;;;;;4885839;29;20141;-75
2022/04/28 05:37:01;;;;;;;4.55;1.60;;;7.80;99.90;;;;;;4916949;29;20167;-75
2022/04/28 05:39:28;;;;;;;3.90;1.50;;;7.80;99.90;;;;;;4901254;29;20502;-75
2022/04/28 05:41:55;;;;;;;4.18;1.70;;;7.80;99.90;;;;;;4870609;29;20040;-74
2022/04/28 05:47:05;;;;;;;6.53;1.80;;;7.70;99.90;;;;;;4917002;29;19918;-75
2022/04/28 05:49:31;;;;;;;5.97;1.23;;;7.70;99.90;;;;;;4901204;29;20107;-74
2022/04/28 05:51:57;;;;;;;4.35;1.35;;;7.70;99.90;;;;;;4885213;29;20106;-75
2022/04/28 05:54:23;;;;;;;3.08;0.98;;;7.70;99.90;;;;;;4916771;29;20051;-74
2022/04/28 05:56:49;;;;;;;3.22;1.13;;;7.70;99.90;;;;;;4916749;29;20048;-73
2022/04/28 05:59:16;;;;;;;2.95;1.25;;;7.80;99.90;;;;;;4916893;29;20491;-74
2022/04/28 06:01:42;;;;;;;4.63;1.63;;;7.80;99.90;;;;;;4901064;29;20082;-73
2022/04/28 06:04:08;;;;;;;3.65;1.17;;;7.90;99.90;;;;;;4916794;29;20062;-73
2022/04/28 06:06:34;;;;;;;3.85;1.23;;;8.00;99.90;;;;;;4901047;29;20111;-74
2022/04/28 06:08:59;;;;;;;4.47;1.67;;;8.10;99.90;;;;;;4916564;29;20052;-72
2022/04/28 06:11:25;;;;;;;4.85;1.65;;;8.20;99.90;;;;;;4916810;29;20047;-72
2022/04/28 06:13:51;;;;;;;3.40;1.10;;;8.30;99.90;;;;;;4900763;29;20453;-72
2022/04/28 06:16:16;;;;;;;2.17;1.15;;;8.40;99.90;;;;;;4900678;29;20051;-73
2022/04/28 06:18:42;;;;;;;5.78;1.45;;;8.60;99.90;;;;;;4885110;29;20050;-72
2022/04/28 06:21:08;;;;;;;4.78;1.40;;;8.80;99.90;;;;;;4916121;29;20063;-72
2022/04/28 06:23:34;;;;;;;3.22;1.20;;;9.20;99.90;;;;;;4900575;29;20081;-72
2022/04/28 06:26:00;;;;;;;4.60;1.50;;;9.70;99.90;;;;;;4900705;29;20118;-72
2022/04/28 06:28:27;;;;;;;4.35;1.50;;;10.10;99.90;;;;;;4916562;29;20047;-73
2022/04/28 06:30:52;;;;;;;;;;;10.70;99.90;;;;;;4917009;29;20066;-74
2022/04/28 06:33:21;;;;;;;3.60;1.30;;;11.00;99.90;;;;;;4916463;29;20358;-74
2022/04/28 06:35:47;;;;;;;4.75;1.38;;;11.20;99.90;;;;;;4916296;29;20400;-73
2022/04/28 06:38:12;;;;;;;4.13;1.40;;;11.50;99.90;;;;;;4916350;29;20102;-72
2022/04/28 06:40:38;;;;;;;5.03;1.55;;;11.60;99.90;;;;;;4916488;29;20141;-73
2022/04/28 06:43:04;;;;;;;5.07;1.08;;;11.60;99.90;;;;;;4933588;29;20561;-73
2022/04/28 06:45:30;;;;;;;2.95;0.90;;;11.40;99.90;;;;;;4900595;29;20043;-73
2022/04/28 06:47:56;;;;;;;4.75;1.23;;;11.50;99.90;;;;;;4916707;29;20040;-74
2022/04/28 06:50:21;;;;;;;5.18;1.20;;;11.40;99.90;;;;;;4900579;29;20043;-74
2022/04/28 06:52:47;;;;;;;4.35;1.38;;;11.60;99.90;;;;;;4900453;29;20130;-74
2022/04/28 06:55:13;;;;;;;3.35;0.88;;;11.30;99.90;;;;;;4916327;29;20075;-74
2022/04/28 06:57:40;;;;;;;7.20;1.65;;;11.40;99.90;;;;;;4916296;29;20048;-75
2022/04/28 07:00:07;;;;;;;3.75;1.27;;;11.20;99.90;;;;;;4933404;29;20066;-74
2022/04/28 07:02:33;;;;;;;5.55;1.13;;;11.00;99.90;;;;;;4917520;29;20048;-74
2022/04/28 07:04:59;;;;;;;;;;;11.00;99.90;;;;;;4920485;29;20129;-74
2022/04/28 07:07:25;;;;;;;6.13;1.15;;;11.10;99.90;;;;;;4919892;29;20369;-74
2022/04/28 07:09:51;;;;;;;3.55;1.02;;;11.40;99.90;;;;;;4920026;29;20118;-73
2022/04/28 07:12:17;;;;;;;2.80;1.10;;;11.40;99.90;;;;;;4920037;29;20106;-73
2022/04/28 07:14:43;;;;;;;;;;;11.10;99.90;;;;;;4888995;29;20059;-73
2022/04/28 07:17:10;;;;;;;3.70;1.02;;;10.80;99.90;;;;;;4919498;29;20017;-73
2022/04/28 07:19:35;;;;;;;3.53;1.10;;;10.50;99.90;;;;;;4919228;29;20047;-73
2022/04/28 07:22:05;;;;;;;5.32;1.30;;;10.60;99.90;;;;;;4919239;29;20059;-73
2022/04/28 07:24:31;;;;;;;4.75;1.20;;;10.80;99.90;;;;;;4888559;29;20135;-73
2022/04/28 07:26:57;;;;;;;5.10;1.40;;;10.60;99.90;;;;;;4919675;29;20036;-73
2022/04/28 07:29:23;;;;;;;4.53;1.00;;;10.40;99.90;;;;;;4919614;29;20142;-74
2022/04/28 07:31:48;;;;;;;6.20;1.30;;;10.10;99.90;;;;;;4919456;29;20526;-73
2022/04/28 07:34:14;;;;;;;3.17;1.20;;;9.90;99.90;;;;;;4919510;29;20122;-75
2022/04/28 07:36:40;;;;;;;3.45;1.10;;;9.70;99.90;;;;;;4919395;29;20483;-74
2022/04/28 07:39:06;;;;;;;4.80;1.08;;;9.60;99.90;;;;;;4903491;29;20186;-74
2022/04/28 07:41:34;;;;;;;6.78;1.48;;;9.70;99.90;;;;;;4936485;29;20058;-73
2022/04/28 07:44:00;;;;;;;4.72;1.42;;;9.60;99.90;;;;;;4903370;29;20040;-74
2022/04/28 07:46:25;;;;;;;5.57;1.52;;;9.60;99.90;;;;;;4919316;29;20102;-74
2022/04/28 07:48:51;;;;;;;5.72;1.40;;;9.60;99.90;;;;;;4903421;29;20055;-74
2022/04/28 07:51:17;;;;;;;6.13;1.25;;;9.60;99.90;;;;;;4887937;29;20046;-73
2022/04/28 07:53:42;;;;;;;9.38;1.48;;;9.70;99.90;;;;;;4919378;29;20575;-74
2022/04/28 07:56:13;;;;;;;4.43;1.20;;;9.60;99.90;;;;;;4918897;29;20376;-74
2022/04/28 07:58:38;;;;;;;4.65;1.05;;;9.70;99.90;;;;;;4903875;29;20043;-74
2022/04/28 08:01:04;;;;;;;5.40;1.20;;;9.70;99.90;;;;;;4918813;29;20051;-73
2022/04/28 08:03:31;;;;;;;3.10;1.05;;;9.80;99.90;;;;;;4903071;29;20047;-74
2022/04/28 08:05:57;;;;;;;4.20;1.20;;;9.90;99.90;;;;;;4918884;29;20075;-74
2022/04/28 08:08:23;;;;;;;4.05;1.08;;;9.80;99.90;;;;;;4919125;29;20126;-74
2022/04/28 08:10:49;;;;;;;5.35;1.13;;;9.80;99.90;;;;;;4918525;29;20044;-74
2022/04/28 08:13:15;;;;;;;2.97;1.10;;;9.70;99.90;;;;;;4918607;29;20055;-72
2022/04/28 08:15:41;;;;;;;3.08;1.05;;;10.10;99.90;;;;;;4902992;29;20043;-74
2022/04/28 08:18:07;;;;;;;5.95;1.30;;;10.40;99.90;;;;;;4902945;29;20094;-74
2022/04/28 08:20:33;;;;;;;3.80;1.05;;;10.80;99.90;;;;;;4918365;29;20083;-74
2022/04/28 08:22:58;;;;;;;4.30;1.23;;;11.10;99.90;;;;;;4918346;29;20202;-74
2022/04/28 08:25:24;;;;;;;4.18;1.20;;;11.50;99.90;;;;;;4918398;29;20142;-75
2022/04/28 08:27:50;;;;;;;6.90;1.40;;;11.40;99.90;;;;;;4918377;29;20078;-75
2022/04/28 08:30:15;;;;;;;7.80;1.52;;;11.20;99.90;;;;;;4918380;29;20059;-75
2022/04/28 08:32:41;;;;;;;4.78;1.25;;;10.80;99.90;;;;;;4903076;29;20106;-75
2022/04/28 08:35:08;;;;;;;4.72;1.30;;;10.80;99.90;;;;;;4918569;29;20367;-74
2022/04/28 08:37:34;;;;;;;4.07;1.30;;;10.80;99.90;;;;;;4902737;29;20499;-75
2022/04/28 08:40:00;;;;;;;;;;;10.90;99.90;;;;;;4936137;29;20051;-74
2022/04/28 08:42:27;;;;;;;4.63;1.60;;;11.00;99.90;;;;;;4918586;29;19926;-74
2022/04/28 08:44:58;;;;;;;7.28;1.75;;;10.90;99.90;;;;;;4918089;29;20491;-74
2022/04/28 08:47:25;;;;;;;6.32;1.88;;;10.80;99.90;;;;;;4917873;29;20040;-74
2022/04/28 08:49:50;;;;;;;5.38;1.63;;;10.90;99.90;;;;;;4917904;29;20047;-75
2022/04/28 08:52:17;;;;;;;3.85;1.52;;;10.90;99.90;;;;;;4918103;29;20099;-75
2022/04/28 08:54:45;;;;;;;9.48;2.10;;;10.80;99.90;;;;;;4902105;29;20486;-74
2022/04/28 08:57:13;;;;;;;4.22;1.80;;;10.90;99.90;;;;;;4917726;29;20517;-74
2022/04/28 08:59:39;;;;;;;11.90;2.25;;;11.10;99.90;;;;;;4902037;29;20055;-74
2022/04/28 09:02:05;;;;;;;;;;;11.40;99.90;;;;;;4918117;29;20051;-73
2022/04/28 09:04:30;;;;;;;6.95;1.90;;;11.60;99.90;;;;;;4917932;29;19922;-72
2022/04/28 09:06:58;;;;;;;5.25;1.88;;;11.50;99.90;;;;;;4917586;29;20130;-73
2022/04/28 09:09:26;;;;;;;7.38;1.98;;;11.60;99.90;;;;;;4917782;29;20123;-74
2022/04/28 09:11:56;;;;;;;6.45;1.90;;;11.70;99.90;;;;;;4917509;29;20051;-74
2022/04/28 09:14:23;;;;;;;8.10;1.95;;;11.70;99.90;;;;;;4917784;29;20118;-74
2022/04/28 09:16:54;;;;;;;5.18;1.85;;;11.60;99.90;;;;;;4934876;29;20051;-74
2022/04/28 09:19:34;;;;;;;5.72;1.70;;;11.60;99.90;;;;;;4917590;29;20047;-73
2022/04/28 09:22:09;;;;;;;4.18;1.63;;;11.80;99.90;;;;;;4917281;29;20059;-73
2022/04/28 09:24:37;;;;;;;5.82;1.58;;;11.60;99.90;;;;;;4934386;29;20435;-72
2022/04/28 09:27:04;;;;;;;6.25;2.33;;;11.50;99.90;;;;;;4916920;29;20036;-72
2022/04/28 09:29:36;;;;;;;4.85;1.63;;;11.60;99.90;;;;;;4917350;29;20054;-73
2022/04/28 09:32:06;;;;;;;7.93;1.83;;;11.50;99.90;;;;;;4917153;29;20051;-73
2022/04/28 09:34:32;;;;;;;5.43;1.70;;;11.40;99.90;;;;;;4902444;29;20141;-73
2022/04/28 09:36:58;;;;;;;5.13;1.92;;;11.30;99.90;;;;;;4917083;29;20504;-73
2022/04/28 09:42:30;;;;;;;8.00;2.15;;;11.30;99.90;;;;;;4916945;29;20059;-73
2022/04/28 09:44:59;;;;;;;8.65;1.90;;;11.10;99.90;;;;;;4917205;29;20443;-73
2022/04/28 09:47:27;;;;;;;4.20;1.60;;;11.20;99.90;;;;;;4901389;29;20043;-73
2022/04/28 09:49:55;;;;;;;5.47;1.52;;;11.30;99.90;;;;;;4916789;29;20340;-73
2022/04/28 09:52:32;;;;;;;7.13;1.70;;;11.40;99.90;;;;;;4909579;29;20051;-73
2022/04/28 09:55:00;;;;;;;5.25;1.70;;;11.40;99.90;;;;;;4901802;29;20468;-73
2022/04/28 09:57:26;;;;;;;8.85;2.28;;;11.30;99.90;;;;;;4916955;29;20071;-73
2022/04/28 09:59:53;;;;;;;3.95;1.70;;;11.30;99.90;;;;;;4934114;29;20055;-73
2022/04/28 10:02:21;;;;;;;7.60;1.85;;;11.30;99.90;;;;;;4916763;29;20051;-74
2022/04/28 10:04:47;;;;;;;5.75;1.83;;;11.30;99.90;;;;;;4916617;29;20052;-74
2022/04/28 10:07:14;;;;;;;5.32;1.50;;;11.50;99.90;;;;;;4916800;29;20078;-73
2022/04/28 10:09:48;;;;;;;7.00;1.88;;;11.70;99.90;;;;;;4901564;29;20122;-74
2022/04/28 10:12:28;;;;;;;8.50;1.67;;;11.60;99.90;;;;;;4901515;29;20130;-75
2022/04/28 10:14:55;;;;;;;5.35;1.63;;;11.50;99.90;;;;;;4916979;29;20052;-74
2022/04/28 10:17:42;;;;;;;5.32;1.55;;;11.60;99.90;;;;;;4916861;29;20050;-74
2022/04/28 10:20:14;;;;;;;;;;;11.60;99.90;;;;;;4901739;29;20047;-73
2022/04/28 10:22:40;;;;;;;6.13;1.80;;;11.70;99.90;;;;;;4916541;29;19949;-74
2022/04/28 10:33:38;;;;;;;5.13;1.70;;;12.10;99.90;;;;;;4916537;29;20056;-75
2022/04/28 10:36:04;;;;;;;4.18;1.30;;;12.20;99.90;;;;;;4901094;29;20047;-75
2022/04/28 10:38:34;;;;;;;5.90;1.70;;;12.10;99.90;;;;;;4920475;29;20503;-74
2022/04/28 10:41:09;;;;;;;6.60;1.60;;;11.80;99.90;;;;;;4920382;29;20051;-74
2022/04/28 10:43:38;;;;;;;6.57;1.85;;;11.80;99.90;;;;;;4920480;29;20059;-74
2022/04/28 10:46:24;;;;;;;4.68;1.45;;;11.60;99.90;;;;;;4937243;29;20074;-74
2022/04/28 10:49:00;;;;;;;6.07;1.85;;;11.80;99.90;;;;;;4920182;29;20475;-74
2022/04/28 10:51:30;;;;;;;6.60;1.83;;;12.00;99.90;;;;;;4920128;29;20070;-74
2022/04/28 10:54:11;;;;;;;7.38;1.77;;;12.00;99.90;;;;;;4920177;29;20040;-74
2022/04/28 10:56:54;;;;;;;5.38;1.45;;;12.10;99.90;;;;;;4920013;29;20079;-74
2022/04/28 10:59:39;;;;;;;6.50;1.58;;;12.30;99.90;;;;;;4904262;29;20040;-74
2022/04/28 11:02:07;;;;;;;5.50;1.42;;;12.10;99.90;;;;;;4904300;29;20047;-73
2022/04/28 11:04:33;;;;;;;7.75;1.60;;;12.30;99.90;;;;;;4920036;29;20054;-74
2022/04/28 11:06:59;;;;;;;5.50;1.40;;;12.20;99.90;;;;;;4920067;29;20043;-73
2022/04/28 11:09:57;;;;;;;7.80;1.80;;;12.20;99.90;;;;;;4919896;29;20066;-73
2022/04/28 11:12:25;;;;;;;7.13;1.88;;;11.90;99.90;;;;;;4905563;29;20056;-73
2022/04/28 11:15:05;;;;;;;7.13;1.70;;;11.60;99.90;;;;;;4919786;29;20181;-74
2022/04/28 11:17:38;;;;;;;4.45;1.40;;;11.60;99.90;;;;;;4903996;29;20083;-74
2022/04/28 11:20:12;;;;;;;4.90;1.50;;;11.90;99.90;;;;;;4903903;29;20130;-74
2022/04/28 11:22:56;;;;;;;6.35;1.70;;;12.10;99.90;;;;;;4919512;29;20066;-75
2022/04/28 11:25:23;;;;;;;3.42;1.30;;;12.10;99.90;;;;;;4896608;29;20056;-74
2022/04/28 11:27:52;;;;;;;3.38;1.00;;;12.30;99.90;;;;;;4919692;29;20185;-75
2022/04/28 11:30:24;;;;;;;5.00;1.48;;;12.30;99.90;;;;;;4936848;29;20079;-74
2022/04/28 11:32:51;;;;;;;5.85;1.33;;;12.10;99.90;;;;;;4903932;29;20048;-75
2022/04/28 11:35:19;;;;;;;7.35;1.42;;;11.90;99.90;;;;;;4919454;29;20562;-74
2022/04/28 11:37:44;;;;;;;4.50;1.42;;;11.80;99.90;;;;;;4919686;29;20051;-74
2022/04/28 11:40:14;;;;;;;4.72;1.58;;;11.80;99.90;;;;;;4936721;29;20480;-74
2022/04/28 11:42:41;;;;;;;4.22;1.20;;;11.70;99.90;;;;;;4919586;29;20407;-75
2022/04/28 11:45:08;;;;;;;5.40;1.83;;;11.80;99.90;;;;;;4903328;29;20051;-74
2022/04/28 11:47:42;;;;;;;3.42;1.20;;;12.00;99.90;;;;;;4903567;29;20102;-74
2022/04/28 11:50:16;;;;;;;5.03;1.20;;;12.30;99.90;;;;;;4918856;29;20036;-74
2022/04/28 11:52:42;;;;;;;6.25;1.38;;;12.80;99.90;;;;;;4918768;29;20395;-74
2022/04/28 11:55:09;;;;;;;5.78;1.60;;;12.90;99.90;;;;;;4919155;29;20036;-75
2022/04/28 11:57:41;;;;;;;5.68;1.50;;;12.80;99.90;;;;;;4888506;29;20043;-74
2022/04/28 12:00:09;;;;;;;5.32;1.50;;;12.40;99.90;;;;;;4903064;29;20048;-73
2022/04/28 12:02:36;;;;;;;5.97;1.50;;;12.30;99.90;;;;;;4919002;29;20522;-74
2022/04/28 12:05:18;;;;;;;4.38;1.60;;;12.10;99.90;;;;;;4903149;29;20056;-73
2022/04/28 12:07:51;;;;;;;5.60;1.50;;;12.20;99.90;;;;;;4903131;29;20099;-73
2022/04/28 12:16:12;;;;;;;4.90;1.60;;;12.50;99.90;;;;;;4918474;29;20059;-74
2022/04/28 12:21:24;;;;;;;5.18;1.60;;;12.90;99.90;;;;;;4918162;29;20054;-74
2022/04/28 12:23:55;;;;;;;7.15;1.52;;;12.70;99.90;;;;;;4918423;29;20118;-75
2022/04/28 12:26:22;;;;;;;6.00;1.52;;;12.60;99.90;;;;;;4902784;29;20047;-74
2022/04/28 12:28:47;;;;;;;6.05;1.50;;;12.50;99.90;;;;;;4918059;29;20491;-75
2022/04/28 12:31:31;;;;;;;3.95;1.10;;;12.80;99.90;;;;;;4918241;29;20050;-75
2022/04/28 12:33:58;;;;;;;4.15;1.50;;;12.90;99.90;;;;;;4902462;29;20051;-72
2022/04/28 12:36:25;;;;;;;5.90;1.48;;;12.70;99.90;;;;;;4935533;29;20044;-73
2022/04/28 12:38:53;;;;;;;4.03;1.30;;;12.40;99.90;;;;;;4918289;29;20487;-73
2022/04/28 12:41:23;;;;;;;6.20;2.00;;;12.40;99.90;;;;;;4935387;29;20183;-73
2022/04/28 12:43:51;;;;;;;4.07;1.20;;;12.20;99.90;;;;;;4917913;29;20067;-73
2022/04/28 12:46:32;;;;;;;6.03;1.92;;;12.30;99.90;;;;;;4917827;29;20059;-73
2022/04/28 12:49:03;;;;;;;4.47;1.40;;;12.30;99.90;;;;;;4888333;29;20447;-73
2022/04/28 12:51:49;;;;;;;5.53;1.33;;;12.10;99.90;;;;;;4902027;29;20201;-73
2022/04/28 12:54:16;;;;;;;4.53;1.30;;;12.90;99.90;;;;;;4889094;29;20062;-73
2022/04/28 12:56:44;;;;;;;4.93;1.27;;;13.10;99.90;;;;;;4917895;29;20051;-74
2022/04/28 12:59:13;;;;;;;5.13;1.20;;;12.90;99.90;;;;;;4918040;29;20396;-73
2022/04/28 13:01:40;;;;;;;4.07;1.50;;;12.70;99.90;;;;;;4917399;29;20078;-73
2022/04/28 13:04:10;;;;;;;4.82;1.52;;;12.30;99.90;;;;;;4902400;29;20051;-74
2022/04/28 13:06:43;;;;;;;7.15;1.83;;;12.10;99.90;;;;;;4918006;29;20047;-74
2022/04/28 13:09:10;;;;;;;5.70;1.27;;;11.80;99.90;;;;;;4901944;29;20047;-73
2022/04/28 13:11:38;;;;;;;5.40;1.23;;;12.00;99.90;;;;;;4901930;29;20054;-74
2022/04/28 13:14:08;;;;;;;6.80;1.33;;;12.20;99.90;;;;;;4917729;29;20048;-74
2022/04/28 13:16:35;;;;;;;5.88;1.60;;;12.90;99.90;;;;;;4917256;29;20054;-75
2022/04/28 13:19:01;;;;;;;5.13;1.40;;;13.10;99.90;;;;;;4901611;29;20091;-75
2022/04/28 13:21:27;;;;;;;8.85;1.75;;;13.10;99.90;;;;;;4917368;29;20396;-75
2022/04/28 13:23:54;;;;;;;3.22;1.00;;;13.20;99.90;;;;;;4917415;29;20083;-75
2022/04/28 13:26:22;;;;;;;2.35;1.02;;;13.70;99.90;;;;;;4917271;29;20476;-75
2022/04/28 13:28:49;;;;;;;3.83;1.05;;;13.70;99.90;;;;;;4917564;29;20043;-74
2022/04/28 13:31:16;;;;;;;5.15;1.23;;;13.40;99.90;;;;;;4917162;29;20051;-74
2022/04/28 13:33:42;;;;;;;;;;;12.80;99.90;;;;;;4934943;29;20134;-74
2022/04/28 13:36:08;;;;;;;4.18;1.40;;;13.10;99.90;;;;;;4917424;29;19961;-73